Alpine, TN

5:09 AM CDT on October 23, 2014 (GMT -0500)
Highlands @ BSF | Change Station
CLOSE
Current Station
Personal Weather Station
Location: Jamestown, TN
Elevation: 1637 ft
Nearby Weather Stations
Active Advisory: Frost Advisory

Elev 1637 ft 36.49 °N, 84.86 °W | Updated 13 minutes ago

Partly Cloudy
Partly Cloudy
41.5 °F
Feels Like 42 °F
N
0.0
Wind Variable Wind from East

Today
High -- | Low -- °F
--% Chance of Precip.
Yesterday
High -- | Low -- °F
Precip. -- in
6:55 AM 5:54 PM
Waning Crescent, 0% visible
Pressure 30.20 in
Visibility 9.0 miles
Clouds Clear
Windchill 42 °F
Dew Point 39 °F
Humidity 92%
Rainfall 0.00 in
Snow Depth Not available.
UV 0 out of 12
Pollen 1.70 out of 12
Air Quality Not available.
Flu Activity Sporadic
METAR KCSV 230953Z AUTO 05005KT 9SM CLR 03/02 A3020 RMK AO2 SLP225 T00330017

More Conditions Fewer Conditions

Pressure 30.20 in
Visibility 9.0 miles
Clouds Clear
Windchill 42 °F
Dew Point 39 °F
Humidity 92%
Rainfall 0.00 in
Snow Depth Not available.
UV 0 out of 12
Pollen 1.70 out of 12
Air Quality Not available.
Flu Activity Sporadic
METAR KCSV 230953Z AUTO 05005KT 9SM CLR 03/02 A3020 RMK AO2 SLP225 T00330017

More Conditions Fewer Conditions

10-Day Weather Forecast

Almanac

Astronomy

Oct. 23, 2014 Rise Set
Actual Time 6:55 AM CDT 5:54 PM CDT
Civil Twilight 6:28 AM CDT 6:20 PM CDT
Nautical Twilight 5:58 AM CDT 6:50 PM CDT
Astronomical Twilight 5:28 AM CDT 7:20 PM CDT
Moon 6:34 AM CDT 5:55 PM CDT
Length of Visible Light 11h 51m
Length of Day
10h 59m
Tomorrow will be 2m 8s shorter.
Waning Crescent, 0% of the Moon is Illuminated
Today
Waning Crescent
Oct 23
New
Oct 30
First Quarter
Nov 6
Full
Nov 14
Last Quarter

Today's Extremes

State Highs State Lows

Community

WunderPhotos

Upload Photos

1,764,201 photos uploaded!

Nearby

Snow Depth

Station Depth Elevation
No new snow has been reported.

Earthquake Activity

City Distance Mag. Time & Date
No recent earthquake activity has been reported nearby.
Minimum magnitude displayed is 2.5.

Coastal Water Temperatures

Place Temperature
No Stations Reporting

Nearby Weather Stations